< Cyclone 201310 2013 Season Cyclone 201314 >
Cyclone 201313 (Sandra)
General InformationTrack Information on Google MapsDetailed Wind InformationList of All Images || ResourceGoogle EarthGE AnimationAtom FeedGeoJSON
Detalied Best Track (Time Zone = UTC)
Year Month Day Hour Lat. Long. Pressure (hPa) Wind (kt) Class Image Chart
2013 3 5 00 -17.8 149.4 1002 15 2 Image --
2013 3 5 06 -17.5 150.1 999 20 2 Image --
2013 3 5 12 -17.1 151.4 996 25 2 Image --
2013 3 5 18 -17.0 152.4 995 25 2 Image --
2013 3 6 00 -17.0 153.4 997 25 2 Image --
2013 3 6 06 -16.8 153.8 996 25 2 Image --
2013 3 6 12 -16.4 153.6 996 25 2 Image --
2013 3 6 18 -16.0 153.7 995 25 2 Image --
2013 3 7 00 -15.9 154.9 996 25 2 Image --
2013 3 7 06 -15.4 155.2 995 25 2 Image --
2013 3 7 12 -15.0 155.7 995 30 2 Image --
2013 3 7 18 -14.9 156.4 995 35 3 Image --
2013 3 8 00 -14.9 156.9 995 35 3 Image --
2013 3 8 06 -15.0 157.1 992 35 3 Image --
2013 3 8 12 -15.1 157.4 994 35 3 Image --
2013 3 8 18 -15.0 157.7 983 50 4 Image --
2013 3 9 00 -15.2 158.3 985 55 4 Image --
2013 3 9 06 -15.4 158.9 981 55 4 Image --
2013 3 9 12 -15.4 159.4 971 65 5 Image --
2013 3 9 18 -15.6 159.9 963 80 5 Image --
2013 3 10 00 -15.8 160.4 958 85 5 Image --
< Cyclone 201310 2013 Season Cyclone 201314 >

Help